createdAt,value
2023-02-08T00:02:11.094Z,2.03
2023-02-08T00:07:13.946Z,3.10
2023-02-08T00:12:18.369Z,4.23
2023-02-08T00:17:22.272Z,3.13
2023-02-08T00:22:24.785Z,1.13
2023-02-08T00:27:27.499Z,1.87
2023-02-08T00:32:31.498Z,2.33
2023-02-08T00:37:34.102Z,2.38
2023-02-08T00:42:36.679Z,1.57
2023-02-08T00:47:40.927Z,3.33
2023-02-08T00:57:46.084Z,0.90
2023-02-08T01:02:50.022Z,2.53
2023-02-08T01:07:53.094Z,3.00
2023-02-08T01:12:55.798Z,3.50
2023-02-08T01:17:59.837Z,2.67
2023-02-08T01:23:02.287Z,2.63
2023-02-08T01:28:05.244Z,1.87
2023-02-08T01:33:09.156Z,2.47
2023-02-08T01:38:11.757Z,0.82
2023-02-08T01:43:20.888Z,2.60
2023-02-08T01:48:26.812Z,3.20
2023-02-08T01:53:30.436Z,2.87
2023-02-08T01:58:37.536Z,2.50
2023-02-08T02:03:41.843Z,2.90
2023-02-08T02:13:47.742Z,5.00
2023-02-08T02:18:51.696Z,3.30
2023-02-08T02:24:03.306Z,1.77
2023-02-08T02:29:20.728Z,2.90
2023-02-08T02:34:27.420Z,3.77
2023-02-08T02:39:35.201Z,2.90
2023-02-08T02:44:41.866Z,2.43
2023-02-08T02:49:49.450Z,4.33
2023-02-08T02:54:54.160Z,2.93
2023-02-08T02:59:58.076Z,0.83
2023-02-08T03:05:02.000Z,1.38
2023-02-08T03:10:10.455Z,2.20
2023-02-08T03:15:18.097Z,3.10
2023-02-08T03:20:24.513Z,1.90
2023-02-08T03:25:31.017Z,1.20
2023-02-08T03:30:37.977Z,2.47
2023-02-08T03:35:45.007Z,1.07
2023-02-08T03:40:48.742Z,2.20
2023-02-08T03:45:51.900Z,2.17
2023-02-08T03:50:57.729Z,0.90
2023-02-08T03:56:03.249Z,3.13
2023-02-08T04:01:07.357Z,4.33
2023-02-08T04:06:11.557Z,3.83
2023-02-08T04:11:14.030Z,2.35
2023-02-08T04:16:16.825Z,1.23
2023-02-08T04:21:20.787Z,1.10
2023-02-08T04:26:23.431Z,2.47
2023-02-08T04:31:26.272Z,2.53
2023-02-08T04:36:33.128Z,3.50
2023-02-08T04:41:35.714Z,2.73
2023-02-08T04:46:38.290Z,1.80
2023-02-08T04:51:42.205Z,1.13
2023-02-08T04:56:44.833Z,3.53
2023-02-08T05:01:47.688Z,2.40
2023-02-08T05:06:51.637Z,1.43
2023-02-08T05:11:54.114Z,2.60
2023-02-08T05:16:56.621Z,2.77
2023-02-08T05:22:00.639Z,1.50
2023-02-08T05:27:03.680Z,4.93
2023-02-08T05:32:06.369Z,2.13
2023-02-08T05:37:10.996Z,1.30
2023-02-08T05:47:15.871Z,1.73
2023-02-08T05:52:19.729Z,1.53
2023-02-08T05:57:22.585Z,1.75
2023-02-08T06:02:25.299Z,1.67
2023-02-08T06:07:29.798Z,1.07
2023-02-08T06:12:32.354Z,2.07
2023-02-08T06:17:37.260Z,3.13
2023-02-08T06:22:42.318Z,2.13
2023-02-08T06:27:45.046Z,2.47
2023-02-08T06:32:47.784Z,1.73
2023-02-08T06:37:51.826Z,2.50
2023-02-08T06:42:54.565Z,3.95
2023-02-08T06:47:57.154Z,4.07
2023-02-08T06:53:01.659Z,4.50
2023-02-08T06:58:24.307Z,4.65
2023-02-08T07:03:46.972Z,4.90
2023-02-08T07:09:11.122Z,4.50
2023-02-08T07:14:34.132Z,4.88
2023-02-08T07:19:59.174Z,6.93
2023-02-08T07:25:23.081Z,5.83
2023-02-08T07:30:45.679Z,10.07
2023-02-08T07:36:09.077Z,8.13
2023-02-08T07:41:36.660Z,8.60
2023-02-08T07:47:07.167Z,8.93
2023-02-08T07:52:34.908Z,7.25
2023-02-08T07:58:05.820Z,10.27
2023-02-08T08:03:30.183Z,7.40
2023-02-08T08:08:39.558Z,11.52
2023-02-08T08:14:07.041Z,5.25
2023-02-08T08:19:15.744Z,6.85
2023-02-08T08:24:21.971Z,8.35
2023-02-08T08:29:30.053Z,9.52
2023-02-08T08:35:15.501Z,8.82
2023-02-08T08:40:34.994Z,8.48
2023-02-08T08:45:43.906Z,7.75
2023-02-08T08:51:04.544Z,9.93
2023-02-08T08:56:36.141Z,7.25
2023-02-08T09:01:49.504Z,5.95
2023-02-08T09:07:01.802Z,7.47
2023-02-08T09:12:15.432Z,6.55
2023-02-08T09:17:20.973Z,6.50
2023-02-08T09:22:27.278Z,9.93
2023-02-08T09:27:32.428Z,10.38
2023-02-08T09:32:47.032Z,10.25
2023-02-08T09:38:05.753Z,10.73
2023-02-08T09:43:33.167Z,8.55
2023-02-08T09:48:52.949Z,9.55
2023-02-08T09:54:03.199Z,10.68
2023-02-08T09:59:25.197Z,10.35
2023-02-08T10:04:42.412Z,10.38
2023-02-08T10:09:53.736Z,9.15
2023-02-08T10:15:06.123Z,9.63
2023-02-08T10:20:20.960Z,12.07
2023-02-08T10:25:46.945Z,10.40
2023-02-08T10:31:06.997Z,11.00
2023-02-08T10:36:20.920Z,10.23
2023-02-08T10:41:32.813Z,11.52
2023-02-08T10:52:09.033Z,8.23
2023-02-08T10:57:14.766Z,10.02
2023-02-08T11:02:21.678Z,8.30
2023-02-08T11:07:25.889Z,10.10
2023-02-08T11:12:28.624Z,9.95
2023-02-08T11:17:32.412Z,10.63
2023-02-08T11:22:37.286Z,11.57
2023-02-08T11:27:43.210Z,11.50
2023-02-08T11:32:46.476Z,11.23
2023-02-08T11:37:51.385Z,11.25
2023-02-08T11:42:54.118Z,12.10
2023-02-08T11:47:57.329Z,11.38
2023-02-08T11:53:02.450Z,11.32
2023-02-08T11:58:06.588Z,10.88
2023-02-08T12:03:13.423Z,11.95
2023-02-08T12:08:22.314Z,11.73
2023-02-08T12:13:40.719Z,11.38
2023-02-08T12:18:52.503Z,13.10
2023-02-08T12:23:58.573Z,11.63
2023-02-08T12:29:17.849Z,12.60
2023-02-08T12:34:23.637Z,12.20
2023-02-08T12:39:54.287Z,11.80
2023-02-08T12:45:07.712Z,12.65
2023-02-08T12:50:15.476Z,10.75
2023-02-08T12:55:22.614Z,11.38
2023-02-08T13:00:26.966Z,13.32
2023-02-08T13:05:32.331Z,11.65
2023-02-08T13:10:39.237Z,9.65
2023-02-08T13:15:44.150Z,10.40
2023-02-08T13:20:48.106Z,10.07
2023-02-08T13:30:56.489Z,9.68
2023-02-08T13:35:59.706Z,9.38
2023-02-08T13:41:04.320Z,9.77
2023-02-08T13:46:08.944Z,9.82
2023-02-08T13:51:26.778Z,9.13
2023-02-08T13:56:40.755Z,7.75
2023-02-08T14:02:05.095Z,7.57
2023-02-08T14:07:14.524Z,6.28
2023-02-08T14:12:22.658Z,7.72
2023-02-08T14:17:29.538Z,8.55
2023-02-08T14:22:42.550Z,6.28
2023-02-08T14:27:50.851Z,5.93
2023-02-08T14:33:09.219Z,5.63
2023-02-08T14:38:30.775Z,5.85
2023-02-08T14:43:36.341Z,5.45
2023-02-08T14:48:44.986Z,5.90
2023-02-08T14:53:49.250Z,5.90
2023-02-08T14:58:53.905Z,5.13
2023-02-08T15:04:01.677Z,3.63
2023-02-08T15:09:06.205Z,5.07
2023-02-08T15:14:19.892Z,4.85
2023-02-08T15:19:29.224Z,4.78
2023-02-08T15:24:32.056Z,3.97
2023-02-08T15:29:44.586Z,3.97
2023-02-08T15:34:51.484Z,3.77
2023-02-08T15:39:55.262Z,3.30
2023-02-08T15:44:59.345Z,3.20
2023-02-08T15:50:04.061Z,2.55
2023-02-08T15:55:08.110Z,3.73
2023-02-08T16:00:14.639Z,4.43
2023-02-08T16:05:23.852Z,4.07
2023-02-08T16:10:30.595Z,4.33
2023-02-08T16:15:41.063Z,2.70
2023-02-08T16:20:46.585Z,5.50
2023-02-08T16:25:50.242Z,2.83
2023-02-08T16:30:53.275Z,2.83
2023-02-08T16:36:01.886Z,3.67
2023-02-08T16:41:13.191Z,2.50
2023-02-08T16:46:21.489Z,2.97
2023-02-08T16:51:27.268Z,3.23
2023-02-08T16:56:30.309Z,4.20
2023-02-08T17:01:33.364Z,3.27
2023-02-08T17:06:38.206Z,3.13
2023-02-08T17:11:41.425Z,3.73
2023-02-08T17:16:44.282Z,3.73
2023-02-08T17:21:48.243Z,5.70
2023-02-08T17:26:50.854Z,2.63
2023-02-08T17:31:53.516Z,4.33
2023-02-08T17:36:57.570Z,2.67
2023-02-08T17:42:00.284Z,5.47
2023-02-08T17:47:02.904Z,4.67
2023-02-08T17:52:07.072Z,6.77
2023-02-08T17:57:11.197Z,5.47
2023-02-08T18:02:13.936Z,1.08
2023-02-08T18:07:18.360Z,3.77
2023-02-08T18:17:23.312Z,4.87
2023-02-08T18:22:27.572Z,5.10
2023-02-08T18:27:30.093Z,2.33
2023-02-08T18:32:32.791Z,3.20
2023-02-08T18:37:37.188Z,3.87
2023-02-08T18:47:42.497Z,4.50
2023-02-08T18:52:46.340Z,5.63
2023-02-08T18:57:48.990Z,4.63
2023-02-08T19:02:51.802Z,3.83
2023-02-08T19:07:55.858Z,5.10
2023-02-08T19:12:58.494Z,4.53
2023-02-08T19:18:01.182Z,4.57
2023-02-08T19:23:05.768Z,4.93
2023-02-08T19:28:08.420Z,3.43
2023-02-08T19:33:11.289Z,4.57
2023-02-08T19:38:15.402Z,6.50
2023-02-08T19:43:18.047Z,8.07
2023-02-08T19:48:22.168Z,9.17
2023-02-08T19:53:26.979Z,7.32
2023-02-08T19:58:29.929Z,3.47
2023-02-08T20:03:32.575Z,5.27
2023-02-08T20:08:36.581Z,5.60
2023-02-08T20:13:39.504Z,3.38
2023-02-08T20:18:42.201Z,4.20
2023-02-08T20:23:46.243Z,3.13
2023-02-08T20:28:50.565Z,3.38
2023-02-08T20:38:57.858Z,2.13
2023-02-08T20:44:01.286Z,2.93
2023-02-08T20:49:05.613Z,3.93
2023-02-08T20:54:11.304Z,4.43
2023-02-08T20:59:17.570Z,2.80
2023-02-08T21:04:23.686Z,2.93
2023-02-08T21:09:28.066Z,2.67
2023-02-08T21:19:33.547Z,2.73
2023-02-08T21:24:37.717Z,2.60
2023-02-08T21:29:40.655Z,1.73
2023-02-08T21:34:43.427Z,2.57
2023-02-08T21:39:47.491Z,4.20
2023-02-08T21:44:50.449Z,3.45
2023-02-08T21:50:10.871Z,1.73
2023-02-08T21:55:14.834Z,1.47
2023-02-08T22:00:17.551Z,4.22
2023-02-08T22:05:39.420Z,2.97
2023-02-08T22:10:53.266Z,1.63
2023-02-08T22:16:02.361Z,1.93
2023-02-08T22:21:05.423Z,3.43
2023-02-08T22:26:10.300Z,2.10
2023-02-08T22:31:15.204Z,1.07
2023-02-08T22:36:17.964Z,2.67
2023-02-08T22:41:23.541Z,1.43
2023-02-08T22:46:26.222Z,1.50
2023-02-08T22:51:29.235Z,2.63
2023-02-08T22:56:33.367Z,1.87
2023-02-08T23:01:35.966Z,1.02
2023-02-08T23:06:38.709Z,1.00
2023-02-08T23:11:42.985Z,1.70
2023-02-08T23:16:45.905Z,0.65
2023-02-08T23:21:48.642Z,2.07
2023-02-08T23:26:52.620Z,1.83
2023-02-08T23:31:55.466Z,0.93
2023-02-08T23:36:58.409Z,1.93
2023-02-08T23:42:02.324Z,1.63
2023-02-08T23:47:05.004Z,1.85
2023-02-08T23:52:07.610Z,1.47
2023-02-08T23:57:11.816Z,2.23
